Aviation Digital Data Service (ADDS)

Output produced by METARs form (0052 UTC 01 November 2020)
found at http://www.aviationweather.gov/metar/data/
 
LECO 010030Z AUTO 21014G24KT 170V240 CAVOK 19/16 Q1020
TAF COR LECO 312059Z 3121/0121 21012KT 9999 SCT015 BKN040 TX20/0115Z TN16/0107Z 
     TEMPO 3121/0121 22019G32KT 
     PROB30 
     TEMPO 3121/0109 BKN010 
     PROB40 
     TEMPO 3121/0107 3000 RA
       
LEAB 312200Z 19002KT CAVOK 10/05 Q1027 NOSIG
TAF LEAB 312300Z 0100/0124 VRB04KT CAVOK TX24/0115Z TN07/0106Z 
     PROB40 
     TEMPO 0110/0119 32006KT
       
TAF LERI 311400Z 3115/0115 VRB03KT CAVOK TX28/0115Z TN11/0107Z 
     PROB40 
     TEMPO 3116/3120 24010KT
       
LEAL 010036Z 35002KT 3000 R10/0500 R28/P2000 BCFG SCT001 BKN006 15/13 Q1024 NOSIG
TAF LEAL 312300Z 0100/0124 VRB04KT 9999 FEW015 TX23/0112Z TN12/0106Z 
     PROB30 
     TEMPO 0100/0108 4000 BR BKN008 
     BECMG 0109/0111 08007KT 
     BECMG 0118/0120 VRB03KT 
     PROB30 
     TEMPO 0121/0124 1000 BCFG
       
LEAM 010030Z AUTO 36004KT CAVOK 15/12 Q1024
TAF LEAM 312000Z 3121/0121 VRB03KT 9999 FEW015 TX23/0114Z TN15/0105Z 
     PROB40 
     TEMPO 0111/0116 21010KT 
     PROB30 
     TEMPO 0112/0121 BKN010
       
LEAS 010030Z 27006KT 210V300 9999 FEW070 21/12 Q1020 NOSIG
TAF LEAS 312000Z 3121/0121 24008KT CAVOK TX23/0113Z TN15/0121Z 
     PROB30 
     TEMPO 0103/0109 RA
       
LEMD 010030Z 01002KT 8000 NSC 10/09 Q1027 NOSIG
TAF LEMD 312300Z 0100/0206 VRB04KT CAVOK TX20/0115Z TN07/0106Z 
     TEMPO 0100/0114 34004KT 
     TEMPO 0121/0206 35004KT 
     PROB30 
     TEMPO 0203/0206 4000 BR
       
LEBL 010030Z 33008KT 8000 SCT010 14/13 Q1024 NOSIG
TAF LEBL 312300Z 0100/0124 32006KT 9999 FEW015 TX23/0112Z TN12/0106Z 
     BECMG 0109/0111 22010KT 
     PROB40 
     TEMPO 0120/0124 3000 BR BKN010 
     PROB30 
     TEMPO 0120/0124 0500 BCFG VV002
       
LEBB 010030Z AUTO VRB03KT CAVOK 19/12 Q1021
TAF LEBB 312300Z 0100/0124 VRB05KT CAVOK TX24/0114Z TN13/0124Z 
     TEMPO 0103/0124 22010KT 
     PROB40 
     TEMPO 0103/0109 20015G25KT
       
LEBG 010030Z AUTO 16007KT CAVOK 09/09 Q1027
LEBA 010030Z AUTO 00000KT CAVOK 12/10 Q1025
TAF LEBA 311400Z 3115/0115 VRB03KT CAVOK TX28/0115Z TN11/0106Z
       
LEVS 010030Z AUTO 00000KT CAVOK 11/10 Q1027
TAF LEVS 312300Z 0100/0124 VRB04KT CAVOK TX20/0115Z TN07/0106Z
       
GCFV 010030Z AUTO 01011KT CAVOK 22/18 Q1022
TAF GCFV 312000Z 3121/0121 35009KT CAVOK TX26/0114Z TN20/0107Z 
     BECMG 0109/0111 05012KT
       
LEGT 312000Z 26001KT CAVOK 14/10 Q1026
TAF LEGT 312300Z 0100/0124 VRB04KT CAVOK TX20/0115Z TN07/0106Z 
     PROB30 
     TEMPO 0101/0107 3000 BR
       
LEGE 010030Z 26004KT 230V290 7000 OVC007 13/12 Q1023
TAF LEGE 312300Z 0100/0124 VRB04KT 9999 FEW015 TX22/0113Z TN10/0106Z 
     TEMPO 0100/0108 2000 BR BKN006 
     PROB40 
     TEMPO 0100/0107 0500 FG VV002 
     TEMPO 0120/0124 2000 BR BKN006 
     PROB40 
     TEMPO 0122/0124 0500 FG VV002
       
GCLP 010030Z 36009KT CAVOK 26/03 Q1022 NOSIG
TAF GCLP 312000Z 3121/0121 36009KT CAVOK TX29/0114Z TN21/0107Z
       
LEGR 010030Z AUTO 23002KT CAVOK 10/08 Q1026
TAF LEGR 312000Z 3121/0121 VRB03KT CAVOK TX28/0115Z TN08/0107Z 
     PROB40 
     TEMPO 0116/0119 27010KT
       
GCHI 010030Z AUTO 34007KT 300V030 CAVOK 23/17 Q1022
TAF GCHI 312000Z 3121/0121 20003KT CAVOK TX27/0114Z TN21/0107Z
       
LEIB 010030Z AUTO 00000KT 9999 SCT015/// BKN017/// 14/14 Q1024
TAF LEIB 312000Z 3121/0121 19005KT 9999 FEW015 TX22/0112Z TN12/0106Z 
     PROB30 
     TEMPO 3122/0108 4000 BR BKN010
       
LEJR 010030Z AUTO 06003KT CAVOK 13/11 Q1024
TAF LEJR 312300Z 0100/0124 VRB02KT CAVOK TX28/0114Z TN10/0106Z
       
GCGM 010030Z AUTO VRB02KT CAVOK 27/03 Q1022 RMK R09/03005KT 360V080 ARP/03004KT 000V060
TAF GCGM 312000Z 3121/0121 VRB04KT CAVOK TX29/0114Z TN21/0107Z
       
GCLA 010030Z AUTO 31010KT CAVOK 28/04 Q1022
TAF GCLA 312000Z 3121/0121 35005KT CAVOK TX29/0114Z TN21/0107Z
       
GCRR 010030Z 04010KT CAVOK 24/08 Q1022
TAF GCRR 312000Z 3121/0121 01009KT CAVOK TX28/0114Z TN20/0107Z 
     BECMG 0109/0111 07015KT
       
LELN 010030Z AUTO 00000KT 2600 BR FEW005 08/08 Q1026
TAF AMD LELN 312205Z 3122/0121 VRB05KT 9999 FEW025 TX16/0115Z TN08/0106Z 
     BECMG 3122/3123 BKN008 
     TEMPO 3123/0112 2000 BR BCFG BKN004 
     PROB40 
     TEMPO 3123/0111 0150 FG VV001 
     TEMPO 0102/0112 2500 RA BKN005 BKN014
       
LEMG 010030Z 30009KT 9999 NSC 13/11 Q1025 NOSIG
TAF LEMG 312300Z 0100/0124 29006KT CAVOK TX23/0112Z TN12/0106Z 
     BECMG 0108/0110 12006KT 
     BECMG 0119/0121 VRB02KT
       
GEML 010030Z AUTO 31004KT 9999 BKN008 15/14 Q1025
TAF GEML 312000Z 3121/0121 32003KT 9999 FEW020 TX22/0113Z TN16/0103Z 
     PROB40 
     TEMPO 0100/0109 BKN010
       
LEMH 010030Z AUTO 29003KT 9999 FEW015/// SCT017/// BKN019/// 16/15 Q1024
TAF LEMH 312000Z 3121/0121 26005KT 9999 SCT010 TX22/0112Z TN13/0106Z 
     TEMPO 3121/0109 2000 BR BKN006 
     PROB40 
     TEMPO 3121/0107 0500 FG VV002
       
LEMO 010030Z 15005KT CAVOK 14/11 Q1024 NOSIG
TAF LEMO 312000Z 3121/0121 VRB03KT CAVOK TX28/0115Z TN11/0107Z 
     TEMPO 0109/0112 04010KT
       
LEPP 010030Z AUTO 15006KT CAVOK 09/08 Q1025
TAF LEPP 312000Z 3121/0121 16006KT CAVOK TX20/0115Z TN07/0106Z
       
LERS 010030Z AUTO 35007KT 7000 OVC007 15/13 Q1024
TAF AMD LERS 010037Z 0100/0121 VRB04KT 8000 FEW015 TX26/0112Z TN09/0106Z 
     TEMPO 0100/0108 OVC006 
     BECMG 0111/0113 22010KT 
     BECMG 0116/0118 VRB03KT
       
LERT 010030Z VRB04KT CAVOK 15/13 Q1024 NOSIG
TAF LERT 312000Z 3121/0121 27004KT CAVOK TX24/0113Z TN14/0107Z 
     TEMPO 0109/0113 04010KT
       
LESA 010030Z AUTO 10001KT CAVOK 06/06 Q1028
TAF LESA 312000Z 3121/0121 VRB05KT CAVOK TX22/0115Z TN07/0106Z 
     TEMPO 3122/0110 2500 BR BCFG BKN004 
     PROB40 0102/0109 0150 FG VV001 
     PROB40 
     TEMPO 0115/0119 30010KT
       
LESO 010030Z AUTO 21003KT 180V270 CAVOK 13/11 Q1021
TAF LESO 312300Z 0100/0124 VRB05KT CAVOK TX24/0114Z TN11/0101Z 
     TEMPO 0104/0110 23010KT
       
LEXJ 010030Z AUTO 22008KT 180V250 7000 NSC 21/12 Q1020
TAF LEXJ 312000Z 3121/0121 22009KT CAVOK TX23/0114Z TN14/0106Z 
     PROB40 
     TEMPO 0100/0107 21015G25KT 
     PROB40 
     TEMPO 0116/0121 22015G25KT
       
LEST 010030Z 23013G24KT 200V280 6000 -RA BKN003 OVC008 16/15 Q1023 TEMPO 3000
TAF LEST 312300Z 0100/0124 20012KT 5000 -RA SCT005 BKN015 TX17/0114Z TN14/0106Z 
     TEMPO 0100/0124 22015G27KT 1500 RADZ BCFG BKN005 
     PROB40 
     TEMPO 0100/0124 0350 FG VV001
       
TAF LESU 311400Z 3115/0115 21005KT CAVOK TX24/0113Z TN04/0106Z 
     PROB30 
     TEMPO 0105/0108 1000 BCFG
       
LEZL 010030Z AUTO 00000KT CAVOK 15/13 Q1025
TAF LEZL 312000Z 3121/0121 04003KT CAVOK TX27/0115Z TN13/0107Z
       
LESB 010030Z AUTO 35003KT CAVOK 13/12 Q1025
LEBZ 010000Z AUTO 26004KT CAVOK 16/14 Q1026
TAF LEBZ 312300Z 0100/0124 VRB02KT CAVOK TX24/0115Z TN11/0106Z 
     BECMG 0102/0104 3000 BR BKN004 
     TEMPO 0105/0110 0400 BCFG VV001 
     BECMG 0110/0112 CAVOK
       
GCXO 010030Z AUTO 15007KT 110V170 CAVOK 21/02 Q1025
TAF GCXO 312000Z 3121/0121 12012KT CAVOK TX27/0114Z TN16/0107Z
       
GCTS 010030Z 07011KT CAVOK 23/08 Q1021 NOSIG
TAF GCTS 312000Z 3121/0121 04012KT CAVOK TX31/0114Z TN23/0107Z 
     PROB40 
     TEMPO 0109/0119 10015G25KT 
     BECMG 0109/0111 10015KT
       
LETO 010030Z 03004KT CAVOK 09/08 Q1027 NOSIG
TAF LETO 312300Z 0100/0124 VRB04KT CAVOK TX20/0115Z TN07/0106Z 
     TEMPO 0100/0110 03005KT 
     TEMPO 0122/0124 03005KT
       
LEVC 010030Z 29004KT 9000 NSC 13/12 Q1023 NOSIG
TAF LEVC 312300Z 0100/0124 30004KT 9999 FEW015 TX26/0112Z TN11/0106Z 
     PROB30 
     TEMPO 0100/0106 1000 BCFG 
     BECMG 0109/0111 10007KT 
     BECMG 0118/0120 29005KT 
     PROB30 
     TEMPO 0121/0124 1000 BCFG
       
LEVD 010030Z AUTO 24004KT 9999 FEW034 10/09 Q1027
TAF LEVD 312000Z 3121/0121 VRB05KT CAVOK TX19/0115Z TN08/0106Z 
     TEMPO 3121/3124 26010KT 
     TEMPO 0101/0111 2500 BR BCFG BKN004 
     PROB40 0105/0110 0150 FG VV001
       
LEVX 010030Z 18009KT 110V230 0200 R19/1600D R01/0400N FG VV001 16/16 Q1024 NOSIG
TAF LEVX 312300Z 0100/0124 18009KT 1500 BCFG BKN005 TX17/0114Z TN14/0124Z 
     TEMPO 0100/0124 0350 DZ FG VV001 
     TEMPO 0100/0124 RADZ 
     PROB30 
     TEMPO 0110/0118 5000 BR BKN015
       
LEVT 010030Z 23008KT 200V260 CAVOK 15/11 Q1024
TAF LEVT 312300Z 0100/0124 21009KT CAVOK TX19/0114Z TN10/0107Z
       
LEZG 010030Z 15002KT CAVOK 11/08 Q1024
TAF LEZG 312300Z 0100/0124 09005KT CAVOK TX24/0113Z TN09/0106Z